createdAt,value
2019-03-04T00:01:28.949Z,67.65
2019-03-04T00:03:57.195Z,67.65
2019-03-04T00:06:25.445Z,67.76
2019-03-04T00:08:53.693Z,67.86
2019-03-04T00:11:22.171Z,68.01
2019-03-04T00:13:50.428Z,68.23
2019-03-04T00:16:18.663Z,68.30
2019-03-04T00:18:46.898Z,68.25
2019-03-04T00:21:15.410Z,68.28
2019-03-04T00:23:43.653Z,68.25
2019-03-04T00:26:11.898Z,68.21
2019-03-04T00:28:40.445Z,67.97
2019-03-04T00:31:08.693Z,67.92
2019-03-04T00:33:37.412Z,67.77
2019-03-04T00:36:05.893Z,67.69
2019-03-04T00:38:34.152Z,67.38
2019-03-04T00:41:02.867Z,67.40
2019-03-04T00:43:31.382Z,67.75
2019-03-04T00:45:59.586Z,68.05
2019-03-04T00:48:28.096Z,68.00
2019-03-04T00:50:56.583Z,67.99
2019-03-04T00:53:24.825Z,67.99
2019-03-04T00:55:53.072Z,68.17
2019-03-04T00:58:21.621Z,68.16
2019-03-04T01:00:50.117Z,68.31
2019-03-04T01:03:18.347Z,68.25
2019-03-04T01:05:46.591Z,68.01
2019-03-04T01:08:14.901Z,67.82
2019-03-04T01:10:43.168Z,67.68
2019-03-04T01:13:11.691Z,67.52
2019-03-04T01:15:39.932Z,67.70
2019-03-04T01:18:08.180Z,67.87
2019-03-04T01:20:36.427Z,68.43
2019-03-04T01:23:04.905Z,68.82
2019-03-04T01:25:33.148Z,68.86
2019-03-04T01:28:01.625Z,69.07
2019-03-04T01:30:49.206Z,69.12
2019-03-04T01:33:17.437Z,69.12
2019-03-04T01:35:45.928Z,69.13
2019-03-04T01:38:14.180Z,68.87
2019-03-04T01:40:42.413Z,68.61
2019-03-04T01:43:10.670Z,68.63
2019-03-04T01:45:38.903Z,68.38
2019-03-04T01:48:07.146Z,68.28
2019-03-04T01:50:35.607Z,68.38
2019-03-04T01:53:04.070Z,68.33
2019-03-04T01:55:32.321Z,68.51
2019-03-04T01:58:00.559Z,68.29
2019-03-04T02:00:29.104Z,68.19
2019-03-04T02:02:57.480Z,68.01
2019-03-04T02:05:25.936Z,67.62
2019-03-04T02:07:54.175Z,67.33
2019-03-04T02:10:22.412Z,67.24
2019-03-04T02:12:50.650Z,67.00
2019-03-04T02:15:21.807Z,66.89
2019-03-04T02:17:51.090Z,66.69
2019-03-04T02:20:19.496Z,66.32
2019-03-04T02:22:48.004Z,66.34
2019-03-04T02:25:37.084Z,66.18
2019-03-04T02:28:05.323Z,66.12
2019-03-04T02:30:33.563Z,65.67
2019-03-04T02:33:02.032Z,65.46
2019-03-04T02:35:30.264Z,64.98
2019-03-04T02:37:58.500Z,65.24
2019-03-04T02:40:26.963Z,65.16
2019-03-04T02:42:55.204Z,65.07
2019-03-04T02:45:23.455Z,64.64
2019-03-04T02:47:51.700Z,63.89
2019-03-04T02:50:19.922Z,63.91
2019-03-04T02:52:48.159Z,64.50
2019-03-04T02:55:17.112Z,64.79
2019-03-04T02:57:45.405Z,65.09
2019-03-04T03:00:18.693Z,65.20
2019-03-04T03:02:46.931Z,65.40
2019-03-04T03:05:15.236Z,65.74
2019-03-04T03:07:43.479Z,65.96
2019-03-04T03:10:13.432Z,66.17
2019-03-04T03:12:41.920Z,66.52
2019-03-04T03:15:12.648Z,66.98
2019-03-04T03:17:41.135Z,67.36
2019-03-04T03:20:11.866Z,67.38
2019-03-04T03:22:40.181Z,67.62
2019-03-04T03:25:09.883Z,67.66
2019-03-04T03:27:38.139Z,67.68
2019-03-04T03:30:11.855Z,67.76
2019-03-04T03:32:40.145Z,67.94
2019-03-04T03:35:09.668Z,67.86
2019-03-04T03:37:38.101Z,68.07
2019-03-04T03:40:12.190Z,67.90
2019-03-04T03:42:40.723Z,68.00
2019-03-04T03:45:10.141Z,67.96
2019-03-04T03:47:38.612Z,68.21
2019-03-04T03:50:09.355Z,68.20
2019-03-04T03:52:37.815Z,68.17
2019-03-04T03:55:11.360Z,68.08
2019-03-04T03:57:39.769Z,68.19
2019-03-04T04:00:17.293Z,68.53
2019-03-04T04:02:45.522Z,68.89
2019-03-04T04:05:13.792Z,70.20
2019-03-04T04:07:42.100Z,70.23
2019-03-04T04:10:15.239Z,70.52
2019-03-04T04:12:43.733Z,71.00
2019-03-04T04:15:13.326Z,71.50
2019-03-04T04:17:41.550Z,71.26
2019-03-04T04:20:10.726Z,71.24
2019-03-04T04:22:38.958Z,71.11
2019-03-04T04:25:08.338Z,71.06
2019-03-04T04:27:36.564Z,71.00
2019-03-04T04:30:13.084Z,71.03
2019-03-04T04:32:41.318Z,70.97
2019-03-04T04:35:09.728Z,70.79
2019-03-04T04:37:38.184Z,70.93
2019-03-04T04:40:09.603Z,70.77
2019-03-04T04:42:38.073Z,70.66
2019-03-04T04:45:07.885Z,70.64
2019-03-04T04:47:36.824Z,70.62
2019-03-04T04:50:17.397Z,70.62
2019-03-04T04:52:45.885Z,70.55
2019-03-04T04:55:14.363Z,70.46
2019-03-04T04:57:42.610Z,70.48
2019-03-04T05:00:18.178Z,70.44
2019-03-04T05:02:46.398Z,70.48
2019-03-04T05:05:14.809Z,70.47
2019-03-04T05:07:43.329Z,70.70
2019-03-04T05:10:21.612Z,70.76
2019-03-04T05:12:50.074Z,70.79
2019-03-04T05:15:18.348Z,71.13
2019-03-04T05:17:46.597Z,71.00
2019-03-04T05:20:22.771Z,70.89
2019-03-04T05:22:51.006Z,70.90
2019-03-04T05:25:19.245Z,70.64
2019-03-04T05:27:47.476Z,70.79
2019-03-04T05:30:20.176Z,70.61
2019-03-04T05:32:48.418Z,70.70
2019-03-04T05:35:16.658Z,70.45
2019-03-04T05:37:44.889Z,70.45
2019-03-04T05:40:16.313Z,70.40
2019-03-04T05:42:44.530Z,70.50
2019-03-04T05:45:19.359Z,70.66
2019-03-04T05:47:47.815Z,70.86
2019-03-04T05:50:20.657Z,70.82
2019-03-04T05:52:49.114Z,70.94
2019-03-04T05:55:17.589Z,70.97
2019-03-04T05:57:45.820Z,71.07
2019-03-04T06:00:19.697Z,71.49
2019-03-04T06:02:48.867Z,71.41
2019-03-04T06:05:17.361Z,71.32
2019-03-04T06:07:52.990Z,71.12
2019-03-04T06:10:21.230Z,70.86
2019-03-04T06:12:49.473Z,70.51
2019-03-04T06:15:19.575Z,70.40
2019-03-04T06:17:47.804Z,70.49
2019-03-04T06:20:17.998Z,70.49
2019-03-04T06:22:46.225Z,70.50
2019-03-04T06:25:16.607Z,71.21
2019-03-04T06:27:45.060Z,70.75
2019-03-04T06:30:16.142Z,70.97
2019-03-04T06:32:44.372Z,71.74
2019-03-04T06:35:13.855Z,72.13
2019-03-04T06:37:42.084Z,72.22
2019-03-04T06:40:15.171Z,73.20
2019-03-04T06:42:43.402Z,72.14
2019-03-04T06:45:16.432Z,72.57
2019-03-04T06:47:44.879Z,72.04
2019-03-04T06:50:47.089Z,73.76
2019-03-04T06:53:36.562Z,72.53
2019-03-04T06:56:22.771Z,72.91
2019-03-04T06:59:05.923Z,72.32
2019-03-04T07:01:52.440Z,71.80
2019-03-04T07:04:26.698Z,72.42
2019-03-04T07:06:54.993Z,72.16
2019-03-04T07:09:23.550Z,71.41
2019-03-04T07:11:51.794Z,71.26
2019-03-04T07:14:20.027Z,70.31
2019-03-04T07:16:48.268Z,70.34
2019-03-04T07:19:17.268Z,69.26
2019-03-04T07:21:45.511Z,69.05
2019-03-04T07:24:13.736Z,68.92
2019-03-04T07:26:41.972Z,67.72
2019-03-04T07:29:10.209Z,67.72
2019-03-04T07:31:38.477Z,66.72
2019-03-04T07:34:06.713Z,66.46
2019-03-04T07:36:35.215Z,66.39
2019-03-04T07:39:05.495Z,65.82
2019-03-04T07:41:34.021Z,65.15
2019-03-04T07:44:02.270Z,65.04
2019-03-04T07:46:30.716Z,64.43
2019-03-04T07:48:59.260Z,64.12
2019-03-04T07:51:27.514Z,63.96
2019-03-04T07:53:55.858Z,63.81
2019-03-04T07:56:24.092Z,63.99
2019-03-04T07:58:52.336Z,63.95
2019-03-04T08:01:20.571Z,63.92
2019-03-04T08:03:48.816Z,63.26
2019-03-04T08:06:17.047Z,62.97
2019-03-04T08:09:04.147Z,61.83
2019-03-04T08:12:03.916Z,60.69
2019-03-04T08:14:32.421Z,61.00
2019-03-04T08:17:00.651Z,59.88
2019-03-04T08:19:29.175Z,59.14
2019-03-04T08:21:57.660Z,59.29
2019-03-04T08:24:25.904Z,58.53
2019-03-04T08:26:54.145Z,58.72
2019-03-04T08:29:22.638Z,58.56
2019-03-04T08:31:50.872Z,58.15
2019-03-04T08:34:19.147Z,57.56
2019-03-04T08:36:47.627Z,57.54
2019-03-04T08:39:16.317Z,56.37
2019-03-04T08:41:44.904Z,55.84
2019-03-04T08:44:13.145Z,55.89
2019-03-04T08:46:41.401Z,56.54
2019-03-04T08:49:09.644Z,55.56
2019-03-04T08:51:38.215Z,56.04
2019-03-04T08:54:06.473Z,55.43
2019-03-04T08:56:34.976Z,55.97
2019-03-04T08:59:03.221Z,56.47
2019-03-04T09:01:31.497Z,57.45
2019-03-04T09:03:59.739Z,56.65
2019-03-04T09:06:28.001Z,56.64
2019-03-04T09:08:56.246Z,57.67
2019-03-04T09:11:24.717Z,57.32
2019-03-04T09:13:53.227Z,57.54
2019-03-04T09:16:21.456Z,58.04
2019-03-04T09:18:49.702Z,58.64
2019-03-04T09:21:17.939Z,59.00
2019-03-04T09:23:46.435Z,58.97
2019-03-04T09:26:14.921Z,59.18
2019-03-04T09:28:43.168Z,58.57
2019-03-04T09:31:11.468Z,57.59
2019-03-04T09:33:39.635Z,56.56
2019-03-04T09:36:08.341Z,56.04
2019-03-04T09:38:36.629Z,55.07
2019-03-04T09:41:05.199Z,54.32
2019-03-04T09:43:33.675Z,53.39
2019-03-04T09:46:01.916Z,51.54
2019-03-04T09:48:30.170Z,50.76
2019-03-04T09:50:58.418Z,50.27
2019-03-04T09:53:26.888Z,49.01
2019-03-04T09:55:55.127Z,48.77
2019-03-04T09:58:23.654Z,47.91
2019-03-04T10:01:07.388Z,47.43
2019-03-04T10:03:41.443Z,47.16
2019-03-04T10:06:41.916Z,47.14
2019-03-04T10:09:31.659Z,46.75
2019-03-04T10:12:18.122Z,46.22
2019-03-04T10:15:07.939Z,45.72
2019-03-04T10:17:36.790Z,45.46
2019-03-04T10:20:25.862Z,47.32
2019-03-04T10:23:15.203Z,47.10
2019-03-04T10:26:03.173Z,47.13
2019-03-04T10:28:43.632Z,47.28
2019-03-04T10:31:26.329Z,47.71
2019-03-04T10:34:09.651Z,47.81
2019-03-04T10:36:50.188Z,48.03
2019-03-04T10:39:27.777Z,47.32
2019-03-04T10:42:19.898Z,46.92
2019-03-04T10:45:10.879Z,47.24
2019-03-04T10:47:39.114Z,45.79
2019-03-04T10:50:09.912Z,46.46
2019-03-04T10:52:38.151Z,46.59
2019-03-04T10:55:09.836Z,46.46
2019-03-04T10:57:38.083Z,46.69
2019-03-04T11:00:15.405Z,47.50
2019-03-04T11:02:43.667Z,48.17
2019-03-04T11:05:11.902Z,49.94
2019-03-04T11:07:40.141Z,51.35
2019-03-04T11:10:10.632Z,52.58
2019-03-04T11:12:38.871Z,53.98
2019-03-04T11:15:26.718Z,53.08
2019-03-04T11:17:55.016Z,54.05
2019-03-04T11:20:23.254Z,54.75
2019-03-04T11:22:51.722Z,55.57
2019-03-04T11:25:20.222Z,57.09
2019-03-04T11:27:48.466Z,60.39
2019-03-04T11:30:20.875Z,60.82
2019-03-04T11:32:49.437Z,62.22
2019-03-04T11:35:17.774Z,60.57
2019-03-04T11:37:46.186Z,60.05
2019-03-04T11:40:22.194Z,59.79
2019-03-04T11:42:50.677Z,59.45
2019-03-04T11:45:19.434Z,59.71
2019-03-04T11:47:47.680Z,58.03
2019-03-04T11:50:16.548Z,58.84
2019-03-04T11:52:45.015Z,56.87
2019-03-04T11:55:22.227Z,56.43
2019-03-04T11:57:50.471Z,56.32
2019-03-04T12:00:43.680Z,56.04
2019-03-04T12:03:11.947Z,55.09
2019-03-04T12:05:40.496Z,54.83
2019-03-04T12:08:08.760Z,54.49
2019-03-04T12:10:37.156Z,54.46
2019-03-04T12:13:06.423Z,53.83
2019-03-04T12:15:34.660Z,52.99
2019-03-04T12:18:03.084Z,53.05
2019-03-04T12:20:31.573Z,53.18
2019-03-04T12:22:59.812Z,53.70
2019-03-04T12:25:28.053Z,53.39
2019-03-04T12:27:56.338Z,51.04
2019-03-04T12:30:25.845Z,50.06
2019-03-04T12:32:54.657Z,50.13
2019-03-04T12:35:23.296Z,49.68
2019-03-04T12:37:51.768Z,49.06
2019-03-04T12:40:23.721Z,49.41
2019-03-04T12:42:52.300Z,49.98
2019-03-04T12:45:22.407Z,50.57
2019-03-04T12:47:50.724Z,51.43
2019-03-04T12:50:29.833Z,52.03
2019-03-04T12:52:58.611Z,52.51
2019-03-04T12:55:27.069Z,53.33
2019-03-04T12:57:55.318Z,53.27
2019-03-04T13:00:30.824Z,53.62
2019-03-04T13:02:59.384Z,54.17
2019-03-04T13:05:28.035Z,55.35
2019-03-04T13:07:56.269Z,56.06
2019-03-04T13:10:24.847Z,57.32
2019-03-04T13:12:53.092Z,56.80
2019-03-04T13:15:35.131Z,57.66
2019-03-04T13:18:05.904Z,58.40
2019-03-04T13:20:35.760Z,61.89
2019-03-04T13:23:04.413Z,67.95
2019-03-04T13:25:32.631Z,71.51
2019-03-04T13:28:08.327Z,72.59
2019-03-04T13:30:33.181Z,74.64
2019-03-04T13:33:01.416Z,75.69
2019-03-04T13:35:32.251Z,78.00
2019-03-04T13:38:00.558Z,79.34
2019-03-04T13:40:31.511Z,80.20
2019-03-04T13:42:59.748Z,81.38
2019-03-04T13:45:29.093Z,80.23
2019-03-04T13:47:57.402Z,79.05
2019-03-04T13:50:31.964Z,79.92
2019-03-04T13:53:00.430Z,78.98
2019-03-04T13:55:28.661Z,79.40
2019-03-04T13:57:56.908Z,80.35
2019-03-04T14:00:33.664Z,81.02
2019-03-04T14:03:02.182Z,81.40
2019-03-04T14:05:30.425Z,83.09
2019-03-04T14:07:58.975Z,84.85
2019-03-04T14:10:42.689Z,84.99
2019-03-04T14:13:10.924Z,86.03
2019-03-04T14:15:44.164Z,84.15
2019-03-04T14:18:12.635Z,83.12
2019-03-04T14:20:41.136Z,82.07
2019-03-04T14:23:09.356Z,82.18
2019-03-04T14:25:37.595Z,80.87
2019-03-04T14:28:05.835Z,81.26
2019-03-04T14:30:34.080Z,81.78
2019-03-04T14:33:02.299Z,80.42
2019-03-04T14:35:30.526Z,78.57
2019-03-04T14:37:59.059Z,78.58
2019-03-04T14:40:27.304Z,78.44
2019-03-04T14:42:55.819Z,79.34
2019-03-04T14:45:27.673Z,79.55
2019-03-04T14:47:56.201Z,79.83
2019-03-04T14:50:24.666Z,81.40
2019-03-04T14:52:53.196Z,82.91
2019-03-04T14:55:23.195Z,83.48
2019-03-04T14:57:51.433Z,85.18
2019-03-04T15:00:24.042Z,85.67
2019-03-04T15:02:52.260Z,87.02
2019-03-04T15:05:20.714Z,87.08
2019-03-04T15:07:48.946Z,85.22
2019-03-04T15:10:17.408Z,84.91
2019-03-04T15:12:45.638Z,86.06
2019-03-04T15:15:19.898Z,82.56
2019-03-04T15:17:48.353Z,83.26
2019-03-04T15:20:19.539Z,82.98
2019-03-04T15:22:48.328Z,83.26
2019-03-04T15:25:22.907Z,84.36
2019-03-04T15:27:51.135Z,85.33
2019-03-04T15:30:19.380Z,85.65
2019-03-04T15:32:47.597Z,85.11
2019-03-04T15:35:15.846Z,86.47
2019-03-04T15:37:44.426Z,86.74
2019-03-04T15:40:14.386Z,86.32
2019-03-04T15:42:42.664Z,86.87
2019-03-04T15:45:13.379Z,87.50
2019-03-04T15:47:42.870Z,85.35
2019-03-04T15:50:11.823Z,86.00
2019-03-04T15:52:40.395Z,83.50
2019-03-04T15:55:10.897Z,83.97
2019-03-04T15:57:39.129Z,84.65
2019-03-04T16:00:13.492Z,85.66
2019-03-04T16:02:41.791Z,84.33
2019-03-04T16:05:12.794Z,82.35
2019-03-04T16:07:41.047Z,81.80
2019-03-04T16:10:12.446Z,80.35
2019-03-04T16:12:41.037Z,81.57
2019-03-04T16:15:12.310Z,79.32
2019-03-04T16:17:40.819Z,79.79
2019-03-04T16:20:16.279Z,83.03
2019-03-04T16:22:45.204Z,83.71
2019-03-04T16:25:14.485Z,83.94
2019-03-04T16:27:42.786Z,84.04
2019-03-04T16:30:13.574Z,84.49
2019-03-04T16:32:41.905Z,84.91
2019-03-04T16:35:10.137Z,81.29
2019-03-04T16:37:38.640Z,83.42
2019-03-04T16:40:15.347Z,85.41
2019-03-04T16:42:43.725Z,85.82
2019-03-04T16:45:19.389Z,82.42
2019-03-04T16:47:47.623Z,81.05
2019-03-04T16:50:24.143Z,80.16
2019-03-04T16:53:04.447Z,82.22
2019-03-04T16:55:32.931Z,79.32
2019-03-04T16:58:01.411Z,80.99
2019-03-04T17:00:29.680Z,81.65
2019-03-04T17:02:58.274Z,83.29
2019-03-04T17:05:27.570Z,77.22
2019-03-04T17:07:55.860Z,82.81
2019-03-04T17:10:25.656Z,83.01
2019-03-04T17:12:54.617Z,80.01
2019-03-04T17:15:23.786Z,80.94
2019-03-04T17:17:52.235Z,80.84
2019-03-04T17:20:20.938Z,78.96
2019-03-04T17:22:49.444Z,79.76
2019-03-04T17:25:19.011Z,76.89
2019-03-04T17:27:47.598Z,78.86
2019-03-04T17:30:17.769Z,77.73
2019-03-04T17:32:46.011Z,76.26
2019-03-04T17:35:16.842Z,77.82
2019-03-04T17:37:45.094Z,76.65
2019-03-04T17:40:15.735Z,78.60
2019-03-04T17:42:43.967Z,76.29
2019-03-04T17:45:20.895Z,76.93
2019-03-04T17:47:49.480Z,78.62
2019-03-04T17:50:35.619Z,78.64
2019-03-04T17:53:06.121Z,78.93
2019-03-04T17:55:34.421Z,79.19
2019-03-04T17:58:02.662Z,78.01
2019-03-04T18:00:30.960Z,78.80
2019-03-04T18:02:59.191Z,77.73
2019-03-04T18:05:27.459Z,77.21
2019-03-04T18:07:55.677Z,77.98
2019-03-04T18:10:24.257Z,76.43
2019-03-04T18:12:54.923Z,78.16
2019-03-04T18:15:25.742Z,79.40
2019-03-04T18:17:53.970Z,78.96
2019-03-04T18:20:22.436Z,78.71
2019-03-04T18:22:50.893Z,79.07
2019-03-04T18:25:28.365Z,79.45
2019-03-04T18:28:11.886Z,78.37
2019-03-04T18:30:54.925Z,78.71
2019-03-04T18:33:40.962Z,79.36
2019-03-04T18:36:33.321Z,78.70
2019-03-04T18:39:19.942Z,79.47
2019-03-04T18:42:13.816Z,77.95
2019-03-04T18:44:45.226Z,79.01
2019-03-04T18:47:25.534Z,79.01
2019-03-04T18:49:53.772Z,77.11
2019-03-04T18:52:22.004Z,80.66
2019-03-04T18:54:50.583Z,78.32
2019-03-04T18:57:18.811Z,79.36
2019-03-04T18:59:47.053Z,79.85
2019-03-04T19:02:15.610Z,79.52
2019-03-04T19:04:44.074Z,79.90
2019-03-04T19:07:12.304Z,79.88
2019-03-04T19:09:40.764Z,79.08
2019-03-04T19:12:08.993Z,79.20
2019-03-04T19:14:37.230Z,81.03
2019-03-04T19:17:07.771Z,78.92
2019-03-04T19:19:35.472Z,80.03
2019-03-04T19:22:03.918Z,80.47
2019-03-04T19:24:32.379Z,81.13
2019-03-04T19:27:00.693Z,80.89
2019-03-04T19:29:29.162Z,80.06
2019-03-04T19:31:57.398Z,80.19
2019-03-04T19:34:25.631Z,79.66
2019-03-04T19:36:53.871Z,79.00
2019-03-04T19:39:22.117Z,79.36
2019-03-04T19:41:50.627Z,78.21
2019-03-04T19:44:18.858Z,78.25
2019-03-04T19:46:47.372Z,78.15
2019-03-04T19:49:15.590Z,78.88
2019-03-04T19:51:43.848Z,78.62
2019-03-04T19:54:12.654Z,77.10
2019-03-04T19:56:40.914Z,76.44
2019-03-04T19:59:09.151Z,77.82
2019-03-04T20:01:37.392Z,77.06
2019-03-04T20:04:06.022Z,78.57
2019-03-04T20:06:34.258Z,76.85
2019-03-04T20:09:02.783Z,78.36
2019-03-04T20:11:31.091Z,79.17
2019-03-04T20:13:59.323Z,77.64
2019-03-04T20:16:27.560Z,79.33
2019-03-04T20:18:55.791Z,79.04
2019-03-04T20:21:24.273Z,78.42
2019-03-04T20:23:52.764Z,78.79
2019-03-04T20:26:21.003Z,80.65
2019-03-04T20:28:49.311Z,81.25
2019-03-04T20:31:17.790Z,82.08
2019-03-04T20:33:46.318Z,80.84
2019-03-04T20:36:14.575Z,82.83
2019-03-04T20:38:45.520Z,81.99
2019-03-04T20:41:13.758Z,83.41
2019-03-04T20:43:41.984Z,83.42
2019-03-04T20:46:10.216Z,82.09
2019-03-04T20:48:38.481Z,83.14
2019-03-04T20:51:06.704Z,82.86
2019-03-04T20:53:35.255Z,83.17
2019-03-04T20:56:03.487Z,81.74
2019-03-04T20:58:31.807Z,81.63
2019-03-04T21:01:00.065Z,80.71
2019-03-04T21:03:34.837Z,81.72
2019-03-04T21:05:59.775Z,80.44
2019-03-04T21:08:28.300Z,80.22
2019-03-04T21:10:56.795Z,82.26
2019-03-04T21:13:35.282Z,82.70
2019-03-04T21:15:56.551Z,80.66
2019-03-04T21:18:24.821Z,82.50
2019-03-04T21:20:53.413Z,82.57
2019-03-04T21:23:21.699Z,80.59
2019-03-04T21:26:01.903Z,80.40
2019-03-04T21:28:42.071Z,79.61
2019-03-04T21:31:39.627Z,81.21
2019-03-04T21:34:11.518Z,80.83
2019-03-04T21:37:04.119Z,80.23
2019-03-04T21:39:37.325Z,80.54
2019-03-04T21:42:15.384Z,82.42
2019-03-04T21:44:49.502Z,80.25
2019-03-04T21:47:27.498Z,81.26
2019-03-04T21:49:55.741Z,82.20
2019-03-04T21:52:33.333Z,80.97
2019-03-04T21:55:03.696Z,80.84
2019-03-04T21:57:34.877Z,81.30
2019-03-04T22:00:05.167Z,81.99
2019-03-04T22:02:36.578Z,83.49
2019-03-04T22:05:13.661Z,84.01
2019-03-04T22:07:42.389Z,84.01
2019-03-04T22:10:12.683Z,84.51
2019-03-04T22:12:40.911Z,84.08
2019-03-04T22:15:09.782Z,84.02
2019-03-04T22:17:38.325Z,83.75
2019-03-04T22:20:10.012Z,83.96
2019-03-04T22:22:38.323Z,84.40
2019-03-04T22:25:09.435Z,84.51
2019-03-04T22:27:37.985Z,84.00
2019-03-04T22:30:11.941Z,83.78
2019-03-04T22:32:40.464Z,85.08
2019-03-04T22:35:11.865Z,83.68
2019-03-04T22:37:40.093Z,84.60
2019-03-04T22:40:23.663Z,84.07
2019-03-04T22:42:51.895Z,85.39
2019-03-04T22:45:21.395Z,84.67
2019-03-04T22:47:50.981Z,84.43
2019-03-04T22:50:20.989Z,84.87
2019-03-04T22:52:49.321Z,84.47
2019-03-04T22:55:20.741Z,84.07
2019-03-04T22:57:48.974Z,84.19
2019-03-04T23:00:43.542Z,84.09
2019-03-04T23:03:12.114Z,83.38
2019-03-04T23:05:40.350Z,83.67
2019-03-04T23:08:08.895Z,83.57
2019-03-04T23:10:40.240Z,84.12
2019-03-04T23:13:24.205Z,84.51
2019-03-04T23:15:54.037Z,84.56
2019-03-04T23:18:22.253Z,85.74
2019-03-04T23:20:50.486Z,85.59
2019-03-04T23:23:18.713Z,84.22
2019-03-04T23:25:46.982Z,84.87
2019-03-04T23:28:15.488Z,83.09
2019-03-04T23:30:43.752Z,83.19
2019-03-04T23:33:12.244Z,81.03
2019-03-04T23:35:40.723Z,80.59
2019-03-04T23:38:08.961Z,80.52
2019-03-04T23:40:37.198Z,80.98
2019-03-04T23:43:05.441Z,81.38
2019-03-04T23:45:33.690Z,82.65
2019-03-04T23:48:01.918Z,81.35
2019-03-04T23:50:30.156Z,81.49
2019-03-04T23:52:58.683Z,81.29
2019-03-04T23:55:27.457Z,79.15
2019-03-04T23:57:55.685Z,78.18
